sensor_id;sensor_type;location;lat;lon;timestamp;pressure;altitude;pressure_sealevel;temperature;humidity
14757;BME280;62446;53.214;10.398;2022-11-20T15:20:40;100523.53;;;0.41;76.84
14757;BME280;62446;53.214;10.398;2022-11-20T15:23:45;100512.09;;;0.62;74.55
14757;BME280;62446;53.214;10.398;2022-11-20T15:26:48;100516.69;;;0.62;74.40
14757;BME280;62446;53.214;10.398;2022-11-20T15:29:52;100520.28;;;0.54;72.68
14757;BME280;62446;53.214;10.398;2022-11-20T15:32:56;100513.50;;;0.50;72.82
14757;BME280;62446;53.214;10.398;2022-11-20T15:36:01;100511.31;;;0.45;72.80
14757;BME280;62446;53.214;10.398;2022-11-20T15:39:05;100512.19;;;0.38;73.66
14757;BME280;62446;53.214;10.398;2022-11-20T15:42:10;100518.28;;;0.40;73.89
14757;BME280;62446;53.214;10.398;2022-11-20T15:45:14;100515.38;;;0.41;73.27
14757;BME280;62446;53.214;10.398;2022-11-20T15:48:19;100510.84;;;0.25;73.24
14757;BME280;62446;53.214;10.398;2022-11-20T15:51:27;100505.75;;;0.22;74.49
14757;BME280;62446;53.214;10.398;2022-11-20T15:54:32;100511.34;;;0.13;74.06
14757;BME280;62446;53.214;10.398;2022-11-20T15:57:36;100506.09;;;0.19;75.84
14757;BME280;62446;53.214;10.398;2022-11-20T16:00:39;100498.63;;;0.21;74.11
14757;BME280;62446;53.214;10.398;2022-11-20T16:03:43;100503.03;;;0.22;73.07
14757;BME280;62446;53.214;10.398;2022-11-20T16:06:48;100498.97;;;0.18;74.11
14757;BME280;62446;53.214;10.398;2022-11-20T16:09:51;100492.72;;;0.18;74.42
14757;BME280;62446;53.214;10.398;2022-11-20T16:12:56;100487.81;;;0.13;74.22
14757;BME280;62446;53.214;10.398;2022-11-20T16:16:20;100483.38;;;0.12;74.06
14757;BME280;62446;53.214;10.398;2022-11-20T16:19:25;100486.75;;;0.14;75.47
14757;BME280;62446;53.214;10.398;2022-11-20T16:22:30;100480.69;;;0.20;75.24
14757;BME280;62446;53.214;10.398;2022-11-20T16:25:33;100489.13;;;0.17;74.91
14757;BME280;62446;53.214;10.398;2022-11-20T16:28:37;100480.34;;;0.23;74.96
14757;BME280;62446;53.214;10.398;2022-11-20T16:31:41;100469.31;;;0.25;74.42
14757;BME280;62446;53.214;10.398;2022-11-20T16:34:44;100475.56;;;0.17;74.34
14757;BME280;62446;53.214;10.398;2022-11-20T16:37:49;100468.13;;;0.19;75.41
14757;BME280;62446;53.214;10.398;2022-11-20T16:40:59;100463.72;;;0.18;75.29
14757;BME280;62446;53.214;10.398;2022-11-20T16:44:06;100469.16;;;0.10;74.48
14757;BME280;62446;53.214;10.398;2022-11-20T16:47:11;100476.63;;;0.16;75.54
14757;BME280;62446;53.214;10.398;2022-11-20T16:50:15;100467.09;;;0.28;74.90
14757;BME280;62446;53.214;10.398;2022-11-20T16:53:21;100465.72;;;0.41;74.40
14757;BME280;62446;53.214;10.398;2022-11-20T16:56:26;100460.25;;;0.49;73.94
14757;BME280;62446;53.214;10.398;2022-11-20T16:59:29;100450.25;;;0.50;72.42
14757;BME280;62446;53.214;10.398;2022-11-20T17:02:33;100454.16;;;0.47;73.12
14757;BME280;62446;53.214;10.398;2022-11-20T17:05:39;100458.75;;;0.47;72.03
14757;BME280;62446;53.214;10.398;2022-11-20T17:08:44;100456.88;;;0.39;72.53
14757;BME280;62446;53.214;10.398;2022-11-20T17:11:48;100450.97;;;0.35;72.45
14757;BME280;62446;53.214;10.398;2022-11-20T17:14:51;100447.44;;;0.26;72.51
14757;BME280;62446;53.214;10.398;2022-11-20T17:17:55;100458.63;;;0.07;72.96
14757;BME280;62446;53.214;10.398;2022-11-20T17:20:59;100451.56;;;-0.11;73.12
14757;BME280;62446;53.214;10.398;2022-11-20T17:24:09;100452.41;;;-0.10;74.36
14757;BME280;62446;53.214;10.398;2022-11-20T17:27:13;100454.75;;;-0.15;73.68
14757;BME280;62446;53.214;10.398;2022-11-20T17:30:16;100458.69;;;-0.26;74.91
14757;BME280;62446;53.214;10.398;2022-11-20T17:33:20;100465.28;;;-0.29;73.38
14757;BME280;62446;53.214;10.398;2022-11-20T17:36:24;100466.97;;;-0.28;73.84
14757;BME280;62446;53.214;10.398;2022-11-20T17:39:29;100464.41;;;-0.21;74.22
14757;BME280;62446;53.214;10.398;2022-11-20T17:42:32;100464.78;;;-0.32;74.43
14757;BME280;62446;53.214;10.398;2022-11-20T17:45:38;100455.47;;;-0.38;74.32
14757;BME280;62446;53.214;10.398;2022-11-20T17:48:42;100453.91;;;-0.49;74.40
14757;BME280;62446;53.214;10.398;2022-11-20T17:51:46;100451.19;;;-0.65;74.40
14757;BME280;62446;53.214;10.398;2022-11-20T17:54:51;100450.84;;;-0.62;74.70
14757;BME280;62446;53.214;10.398;2022-11-20T17:57:57;100452.34;;;-0.68;75.44
14757;BME280;62446;53.214;10.398;2022-11-20T18:01:04;100454.56;;;-0.71;75.01
14757;BME280;62446;53.214;10.398;2022-11-20T18:04:08;100453.88;;;-0.82;74.96
14757;BME280;62446;53.214;10.398;2022-11-20T18:07:12;100450.78;;;-0.87;75.12
14757;BME280;62446;53.214;10.398;2022-11-20T18:10:17;100453.50;;;-0.87;74.91
14757;BME280;62446;53.214;10.398;2022-11-20T18:13:21;100452.16;;;-0.83;74.57
14757;BME280;62446;53.214;10.398;2022-11-20T18:16:50;100453.50;;;-0.95;74.96
14757;BME280;62446;53.214;10.398;2022-11-20T18:19:54;100450.13;;;-0.89;75.22
14757;BME280;62446;53.214;10.398;2022-11-20T18:23:18;100449.63;;;-0.84;75.79
14757;BME280;62446;53.214;10.398;2022-11-20T18:26:23;100447.22;;;-0.96;74.64
14757;BME280;62446;53.214;10.398;2022-11-20T18:29:28;100440.47;;;-1.00;76.66
14757;BME280;62446;53.214;10.398;2022-11-20T18:32:33;100441.31;;;-0.99;75.62
14757;BME280;62446;53.214;10.398;2022-11-20T18:35:37;100441.34;;;-0.83;74.21
14757;BME280;62446;53.214;10.398;2022-11-20T18:38:45;100442.88;;;-0.80;74.56
14757;BME280;62446;53.214;10.398;2022-11-20T18:41:50;100443.00;;;-0.90;73.20
14757;BME280;62446;53.214;10.398;2022-11-20T18:45:11;100441.63;;;-1.02;74.96
14757;BME280;62446;53.214;10.398;2022-11-20T18:48:15;100443.69;;;-1.04;75.69
14757;BME280;62446;53.214;10.398;2022-11-20T18:51:18;100444.31;;;-1.10;74.65
14757;BME280;62446;53.214;10.398;2022-11-20T18:54:22;100439.22;;;-1.14;74.63
14757;BME280;62446;53.214;10.398;2022-11-20T18:57:28;100431.94;;;-1.21;75.74
14757;BME280;62446;53.214;10.398;2022-11-20T19:00:32;100430.06;;;-1.21;75.26
14757;BME280;62446;53.214;10.398;2022-11-20T19:03:36;100436.50;;;-1.22;75.13
14757;BME280;62446;53.214;10.398;2022-11-20T19:06:41;100424.66;;;-1.29;75.42
14757;BME280;62446;53.214;10.398;2022-11-20T19:09:48;100424.56;;;-1.45;74.90
14757;BME280;62446;53.214;10.398;2022-11-20T19:12:53;100412.78;;;-1.36;76.00
14757;BME280;62446;53.214;10.398;2022-11-20T19:16:01;100409.38;;;-1.38;75.70
14757;BME280;62446;53.214;10.398;2022-11-20T19:19:05;100406.88;;;-1.66;76.62
14757;BME280;62446;53.214;10.398;2022-11-20T19:22:09;100404.56;;;-1.61;78.33
14757;BME280;62446;53.214;10.398;2022-11-20T19:25:12;100402.38;;;-1.57;76.75
14757;BME280;62446;53.214;10.398;2022-11-20T19:28:17;100400.53;;;-1.57;76.90
14757;BME280;62446;53.214;10.398;2022-11-20T19:31:23;100394.41;;;-1.67;75.73
14757;BME280;62446;53.214;10.398;2022-11-20T19:34:28;100389.94;;;-1.76;75.98
14757;BME280;62446;53.214;10.398;2022-11-20T19:37:32;100392.97;;;-1.79;77.52
14757;BME280;62446;53.214;10.398;2022-11-20T19:40:36;100392.31;;;-1.73;77.50
14757;BME280;62446;53.214;10.398;2022-11-20T19:43:41;100392.03;;;-1.62;75.83
14757;BME280;62446;53.214;10.398;2022-11-20T19:46:45;100386.28;;;-1.67;76.00
14757;BME280;62446;53.214;10.398;2022-11-20T19:49:49;100380.50;;;-1.72;75.74
14757;BME280;62446;53.214;10.398;2022-11-20T19:52:53;100385.50;;;-1.86;76.47
14757;BME280;62446;53.214;10.398;2022-11-20T19:56:00;100381.81;;;-2.11;76.77
14757;BME280;62446;53.214;10.398;2022-11-20T19:59:05;100374.81;;;-2.22;78.15
14757;BME280;62446;53.214;10.398;2022-11-20T20:02:09;100370.16;;;-2.11;77.43
14757;BME280;62446;53.214;10.398;2022-11-20T20:05:13;100366.28;;;-2.09;77.93
14757;BME280;62446;53.214;10.398;2022-11-20T20:08:17;100360.78;;;-1.99;76.98
14757;BME280;62446;53.214;10.398;2022-11-20T20:11:22;100352.78;;;-2.09;76.92
14757;BME280;62446;53.214;10.398;2022-11-20T20:14:28;100354.16;;;-2.31;78.63
14757;BME280;62446;53.214;10.398;2022-11-20T20:17:32;100355.22;;;-2.24;78.93
14757;BME280;62446;53.214;10.398;2022-11-20T20:20:35;100350.78;;;-2.07;77.81
14757;BME280;62446;53.214;10.398;2022-11-20T20:23:40;100349.59;;;-2.04;77.97
14757;BME280;62446;53.214;10.398;2022-11-20T20:26:44;100347.59;;;-2.02;77.29
14757;BME280;62446;53.214;10.398;2022-11-20T20:29:49;100355.31;;;-2.07;77.47
14757;BME280;62446;53.214;10.398;2022-11-20T20:32:53;100356.69;;;-2.03;77.50
14757;BME280;62446;53.214;10.398;2022-11-20T20:35:58;100348.53;;;-2.11;77.84
14757;BME280;62446;53.214;10.398;2022-11-20T20:39:01;100347.47;;;-2.19;77.55
14757;BME280;62446;53.214;10.398;2022-11-20T20:42:05;100346.94;;;-1.96;78.45
14757;BME280;62446;53.214;10.398;2022-11-20T20:45:10;100339.50;;;-1.94;77.34
14757;BME280;62446;53.214;10.398;2022-11-20T20:48:14;100335.13;;;-1.95;79.43
14757;BME280;62446;53.214;10.398;2022-11-20T20:51:18;100338.47;;;-2.01;78.94
14757;BME280;62446;53.214;10.398;2022-11-20T20:54:22;100334.72;;;-2.08;79.71
14757;BME280;62446;53.214;10.398;2022-11-20T20:57:25;100340.56;;;-1.87;80.30
14757;BME280;62446;53.214;10.398;2022-11-20T21:00:31;100328.41;;;-1.83;80.20
14757;BME280;62446;53.214;10.398;2022-11-20T21:03:35;100325.47;;;-1.55;79.82
14757;BME280;62446;53.214;10.398;2022-11-20T21:06:39;100324.47;;;-1.54;77.10
14757;BME280;62446;53.214;10.398;2022-11-20T21:09:43;100321.69;;;-1.78;77.37
14757;BME280;62446;53.214;10.398;2022-11-20T21:12:46;100319.66;;;-1.76;78.81
14757;BME280;62446;53.214;10.398;2022-11-20T21:15:51;100319.66;;;-1.76;77.92
14757;BME280;62446;53.214;10.398;2022-11-20T21:18:55;100323.19;;;-1.84;79.17
14757;BME280;62446;53.214;10.398;2022-11-20T21:21:59;100331.13;;;-1.83;80.25
14757;BME280;62446;53.214;10.398;2022-11-20T21:25:05;100320.72;;;-1.61;80.96
14757;BME280;62446;53.214;10.398;2022-11-20T21:28:09;100319.56;;;-1.58;78.40
14757;BME280;62446;53.214;10.398;2022-11-20T21:31:22;100314.69;;;-1.46;78.25
14757;BME280;62446;53.214;10.398;2022-11-20T21:34:26;100308.94;;;-1.43;77.26
14757;BME280;62446;53.214;10.398;2022-11-20T21:37:30;100319.09;;;-1.37;76.86
14757;BME280;62446;53.214;10.398;2022-11-20T21:40:39;100307.16;;;-1.77;76.58
14757;BME280;62446;53.214;10.398;2022-11-20T21:43:43;100300.78;;;-2.03;78.67
14757;BME280;62446;53.214;10.398;2022-11-20T21:46:48;100308.66;;;-2.18;80.15
14757;BME280;62446;53.214;10.398;2022-11-20T21:49:51;100304.81;;;-2.41;80.63
14757;BME280;62446;53.214;10.398;2022-11-20T21:52:55;100299.91;;;-2.38;82.16
